sensor_id;sensor_type;location;lat;lon;timestamp;temperature;humidity
24522;DHT22;12680;57.804;12.190;2023-04-08T00:01:41;6.10;92.70
24522;DHT22;12680;57.804;12.190;2023-04-08T00:04:08;6.10;93.00
24522;DHT22;12680;57.804;12.190;2023-04-08T00:06:35;6.10;92.70
24522;DHT22;12680;57.804;12.190;2023-04-08T00:09:02;6.10;92.60
24522;DHT22;12680;57.804;12.190;2023-04-08T00:11:29;6.10;92.90
24522;DHT22;12680;57.804;12.190;2023-04-08T00:13:56;6.10;92.60
24522;DHT22;12680;57.804;12.190;2023-04-08T00:16:23;6.10;92.60
24522;DHT22;12680;57.804;12.190;2023-04-08T00:18:50;6.10;92.60
24522;DHT22;12680;57.804;12.190;2023-04-08T00:21:17;6.10;92.60
24522;DHT22;12680;57.804;12.190;2023-04-08T00:23:46;6.10;92.60
24522;DHT22;12680;57.804;12.190;2023-04-08T00:26:13;6.10;92.60
24522;DHT22;12680;57.804;12.190;2023-04-08T00:28:40;6.10;92.60
24522;DHT22;12680;57.804;12.190;2023-04-08T00:31:06;6.10;92.60
24522;DHT22;12680;57.804;12.190;2023-04-08T00:33:34;6.10;92.60
24522;DHT22;12680;57.804;12.190;2023-04-08T00:36:02;6.10;92.60
24522;DHT22;12680;57.804;12.190;2023-04-08T00:38:29;6.10;92.60
24522;DHT22;12680;57.804;12.190;2023-04-08T00:40:56;6.10;92.50
24522;DHT22;12680;57.804;12.190;2023-04-08T00:43:23;6.10;92.50
24522;DHT22;12680;57.804;12.190;2023-04-08T00:45:50;6.10;92.50
24522;DHT22;12680;57.804;12.190;2023-04-08T00:48:17;6.10;92.60
24522;DHT22;12680;57.804;12.190;2023-04-08T00:50:44;6.10;92.50
24522;DHT22;12680;57.804;12.190;2023-04-08T00:53:17;6.10;92.60
24522;DHT22;12680;57.804;12.190;2023-04-08T00:55:44;6.20;92.60
24522;DHT22;12680;57.804;12.190;2023-04-08T00:58:12;6.20;92.50
24522;DHT22;12680;57.804;12.190;2023-04-08T01:00:45;6.20;92.50
24522;DHT22;12680;57.804;12.190;2023-04-08T01:03:29;6.20;92.50
24522;DHT22;12680;57.804;12.190;2023-04-08T01:06:26;6.20;92.50
24522;DHT22;12680;57.804;12.190;2023-04-08T01:08:53;6.20;92.60
24522;DHT22;12680;57.804;12.190;2023-04-08T01:11:20;6.20;92.60
24522;DHT22;12680;57.804;12.190;2023-04-08T01:13:48;6.20;92.50
24522;DHT22;12680;57.804;12.190;2023-04-08T01:16:17;6.20;92.50
24522;DHT22;12680;57.804;12.190;2023-04-08T01:18:45;6.20;92.50
24522;DHT22;12680;57.804;12.190;2023-04-08T01:21:14;6.20;92.50
24522;DHT22;12680;57.804;12.190;2023-04-08T01:26:27;6.20;92.50
24522;DHT22;12680;57.804;12.190;2023-04-08T01:28:56;6.20;92.60
24522;DHT22;12680;57.804;12.190;2023-04-08T01:31:25;6.20;92.60
24522;DHT22;12680;57.804;12.190;2023-04-08T01:33:53;6.20;92.60
24522;DHT22;12680;57.804;12.190;2023-04-08T01:36:22;6.20;92.70
24522;DHT22;12680;57.804;12.190;2023-04-08T01:38:49;6.20;92.70
24522;DHT22;12680;57.804;12.190;2023-04-08T01:41:17;6.20;92.60
24522;DHT22;12680;57.804;12.190;2023-04-08T01:43:45;6.20;92.60
24522;DHT22;12680;57.804;12.190;2023-04-08T01:46:14;6.20;92.60
24522;DHT22;12680;57.804;12.190;2023-04-08T01:48:41;6.20;92.60
24522;DHT22;12680;57.804;12.190;2023-04-08T01:51:10;6.20;92.60
24522;DHT22;12680;57.804;12.190;2023-04-08T01:53:37;6.20;92.60
24522;DHT22;12680;57.804;12.190;2023-04-08T01:56:06;6.20;92.60
24522;DHT22;12680;57.804;12.190;2023-04-08T01:58:40;6.20;92.60
24522;DHT22;12680;57.804;12.190;2023-04-08T02:01:13;6.20;92.60
24522;DHT22;12680;57.804;12.190;2023-04-08T02:03:43;6.10;92.60
24522;DHT22;12680;57.804;12.190;2023-04-08T02:06:11;6.10;92.70
24522;DHT22;12680;57.804;12.190;2023-04-08T02:08:37;6.10;92.70
24522;DHT22;12680;57.804;12.190;2023-04-08T02:11:04;6.20;92.80
24522;DHT22;12680;57.804;12.190;2023-04-08T02:13:31;6.10;92.80
24522;DHT22;12680;57.804;12.190;2023-04-08T02:16:18;6.10;92.80
24522;DHT22;12680;57.804;12.190;2023-04-08T02:19:01;6.10;92.90
24522;DHT22;12680;57.804;12.190;2023-04-08T02:21:37;6.10;92.90
24522;DHT22;12680;57.804;12.190;2023-04-08T02:24:07;6.20;92.90
24522;DHT22;12680;57.804;12.190;2023-04-08T02:26:36;6.10;92.90
24522;DHT22;12680;57.804;12.190;2023-04-08T02:29:04;6.10;92.90
24522;DHT22;12680;57.804;12.190;2023-04-08T02:31:33;6.10;92.90
24522;DHT22;12680;57.804;12.190;2023-04-08T02:33:59;6.10;93.10
24522;DHT22;12680;57.804;12.190;2023-04-08T02:36:26;6.10;93.10
24522;DHT22;12680;57.804;12.190;2023-04-08T02:38:53;6.10;93.10
24522;DHT22;12680;57.804;12.190;2023-04-08T02:41:20;6.20;93.20
24522;DHT22;12680;57.804;12.190;2023-04-08T02:43:47;6.20;93.20
24522;DHT22;12680;57.804;12.190;2023-04-08T02:46:13;6.20;93.10
24522;DHT22;12680;57.804;12.190;2023-04-08T02:48:41;6.20;93.10
24522;DHT22;12680;57.804;12.190;2023-04-08T02:51:08;6.20;93.20
24522;DHT22;12680;57.804;12.190;2023-04-08T02:53:34;6.20;93.20
24522;DHT22;12680;57.804;12.190;2023-04-08T02:56:01;6.20;93.30
24522;DHT22;12680;57.804;12.190;2023-04-08T02:58:28;6.20;93.30
24522;DHT22;12680;57.804;12.190;2023-04-08T03:00:54;6.20;93.30
24522;DHT22;12680;57.804;12.190;2023-04-08T03:03:21;6.20;93.40
24522;DHT22;12680;57.804;12.190;2023-04-08T03:05:56;6.20;93.40
24522;DHT22;12680;57.804;12.190;2023-04-08T03:08:23;6.20;93.40
24522;DHT22;12680;57.804;12.190;2023-04-08T03:10:49;6.20;93.40
24522;DHT22;12680;57.804;12.190;2023-04-08T03:13:16;6.20;93.40
24522;DHT22;12680;57.804;12.190;2023-04-08T03:15:43;6.20;93.40
24522;DHT22;12680;57.804;12.190;2023-04-08T03:18:09;6.20;93.40
24522;DHT22;12680;57.804;12.190;2023-04-08T03:20:36;6.10;93.40
24522;DHT22;12680;57.804;12.190;2023-04-08T03:23:03;6.10;93.50
24522;DHT22;12680;57.804;12.190;2023-04-08T03:25:30;6.10;93.60
24522;DHT22;12680;57.804;12.190;2023-04-08T03:27:57;6.10;93.60
24522;DHT22;12680;57.804;12.190;2023-04-08T03:30:24;6.10;93.60
24522;DHT22;12680;57.804;12.190;2023-04-08T03:32:51;6.10;93.70
24522;DHT22;12680;57.804;12.190;2023-04-08T03:35:19;6.10;93.70
24522;DHT22;12680;57.804;12.190;2023-04-08T03:37:46;6.10;93.70
24522;DHT22;12680;57.804;12.190;2023-04-08T03:40:12;6.10;93.80
24522;DHT22;12680;57.804;12.190;2023-04-08T03:42:39;6.10;93.80
24522;DHT22;12680;57.804;12.190;2023-04-08T03:45:06;6.10;93.80
24522;DHT22;12680;57.804;12.190;2023-04-08T03:47:33;6.10;93.90
24522;DHT22;12680;57.804;12.190;2023-04-08T03:50:00;6.10;93.90
24522;DHT22;12680;57.804;12.190;2023-04-08T03:52:27;6.10;94.00
24522;DHT22;12680;57.804;12.190;2023-04-08T03:54:53;6.10;94.00
24522;DHT22;12680;57.804;12.190;2023-04-08T03:57:20;6.20;94.00
24522;DHT22;12680;57.804;12.190;2023-04-08T03:59:47;6.20;94.10
24522;DHT22;12680;57.804;12.190;2023-04-08T04:02:14;6.20;94.10
24522;DHT22;12680;57.804;12.190;2023-04-08T04:04:41;6.20;94.10
24522;DHT22;12680;57.804;12.190;2023-04-08T04:07:07;6.20;94.00
24522;DHT22;12680;57.804;12.190;2023-04-08T04:09:34;6.20;94.10
24522;DHT22;12680;57.804;12.190;2023-04-08T04:12:01;6.20;94.10
24522;DHT22;12680;57.804;12.190;2023-04-08T04:14:27;6.20;94.10
24522;DHT22;12680;57.804;12.190;2023-04-08T04:16:54;6.20;94.10
24522;DHT22;12680;57.804;12.190;2023-04-08T04:19:21;6.20;94.10
24522;DHT22;12680;57.804;12.190;2023-04-08T04:21:48;6.20;94.20
24522;DHT22;12680;57.804;12.190;2023-04-08T04:24:14;6.20;94.20
24522;DHT22;12680;57.804;12.190;2023-04-08T04:26:41;6.20;94.20
24522;DHT22;12680;57.804;12.190;2023-04-08T04:29:08;6.10;94.20
24522;DHT22;12680;57.804;12.190;2023-04-08T04:31:35;6.10;94.20
24522;DHT22;12680;57.804;12.190;2023-04-08T04:34:01;6.10;94.30
24522;DHT22;12680;57.804;12.190;2023-04-08T04:36:28;6.10;94.30
24522;DHT22;12680;57.804;12.190;2023-04-08T04:38:55;6.10;94.40
24522;DHT22;12680;57.804;12.190;2023-04-08T04:41:22;6.10;94.40
24522;DHT22;12680;57.804;12.190;2023-04-08T04:43:49;5.40;94.20
24522;DHT22;12680;57.804;12.190;2023-04-08T04:46:16;6.10;94.50
24522;DHT22;12680;57.804;12.190;2023-04-08T04:48:42;6.00;94.60
24522;DHT22;12680;57.804;12.190;2023-04-08T04:51:09;6.00;94.70
24522;DHT22;12680;57.804;12.190;2023-04-08T04:53:36;6.00;94.70
24522;DHT22;12680;57.804;12.190;2023-04-08T04:56:03;6.00;94.80
24522;DHT22;12680;57.804;12.190;2023-04-08T04:58:30;6.00;94.90
24522;DHT22;12680;57.804;12.190;2023-04-08T05:00:57;6.00;94.90
24522;DHT22;12680;57.804;12.190;2023-04-08T05:03:24;6.00;94.90
24522;DHT22;12680;57.804;12.190;2023-04-08T05:05:51;6.00;95.00
24522;DHT22;12680;57.804;12.190;2023-04-08T05:08:18;6.00;95.00
24522;DHT22;12680;57.804;12.190;2023-04-08T05:10:46;6.00;95.10
24522;DHT22;12680;57.804;12.190;2023-04-08T05:13:12;6.00;95.10
24522;DHT22;12680;57.804;12.190;2023-04-08T05:15:39;6.00;95.10
24522;DHT22;12680;57.804;12.190;2023-04-08T05:18:06;6.00;95.20
24522;DHT22;12680;57.804;12.190;2023-04-08T05:20:33;6.10;95.20
24522;DHT22;12680;57.804;12.190;2023-04-08T05:22:59;6.10;95.20
24522;DHT22;12680;57.804;12.190;2023-04-08T05:25:26;6.10;95.30
24522;DHT22;12680;57.804;12.190;2023-04-08T05:27:53;6.10;95.30
24522;DHT22;12680;57.804;12.190;2023-04-08T05:30:20;6.10;95.30
24522;DHT22;12680;57.804;12.190;2023-04-08T05:32:47;6.10;95.30
24522;DHT22;12680;57.804;12.190;2023-04-08T05:35:13;6.10;95.40
24522;DHT22;12680;57.804;12.190;2023-04-08T05:37:40;6.10;95.40
24522;DHT22;12680;57.804;12.190;2023-04-08T05:40:07;6.10;95.30
24522;DHT22;12680;57.804;12.190;2023-04-08T05:42:34;6.20;95.40
24522;DHT22;12680;57.804;12.190;2023-04-08T05:45:01;6.20;95.40
24522;DHT22;12680;57.804;12.190;2023-04-08T05:47:28;6.20;95.40
24522;DHT22;12680;57.804;12.190;2023-04-08T05:49:54;6.20;95.40
24522;DHT22;12680;57.804;12.190;2023-04-08T05:52:21;6.20;95.30
24522;DHT22;12680;57.804;12.190;2023-04-08T05:54:48;6.20;95.40
24522;DHT22;12680;57.804;12.190;2023-04-08T05:57:15;6.20;95.40
24522;DHT22;12680;57.804;12.190;2023-04-08T05:59:42;6.30;95.30
24522;DHT22;12680;57.804;12.190;2023-04-08T06:02:09;6.30;95.30
24522;DHT22;12680;57.804;12.190;2023-04-08T06:04:36;6.30;95.30
24522;DHT22;12680;57.804;12.190;2023-04-08T06:07:03;6.30;95.20
24522;DHT22;12680;57.804;12.190;2023-04-08T06:09:34;6.30;95.20
24522;DHT22;12680;57.804;12.190;2023-04-08T06:12:02;6.40;95.20
24522;DHT22;12680;57.804;12.190;2023-04-08T06:14:29;6.30;95.10
24522;DHT22;12680;57.804;12.190;2023-04-08T06:16:55;6.40;95.20
24522;DHT22;12680;57.804;12.190;2023-04-08T06:19:23;6.40;95.10
24522;DHT22;12680;57.804;12.190;2023-04-08T06:21:50;6.40;94.90
24522;DHT22;12680;57.804;12.190;2023-04-08T06:24:17;6.40;95.00
24522;DHT22;12680;57.804;12.190;2023-04-08T06:26:43;6.40;95.00
24522;DHT22;12680;57.804;12.190;2023-04-08T06:29:10;6.40;94.90
24522;DHT22;12680;57.804;12.190;2023-04-08T06:31:37;6.40;94.90
24522;DHT22;12680;57.804;12.190;2023-04-08T06:34:04;6.50;94.90
24522;DHT22;12680;57.804;12.190;2023-04-08T06:36:31;6.50;95.20
24522;DHT22;12680;57.804;12.190;2023-04-08T06:38:57;6.50;94.80
24522;DHT22;12680;57.804;12.190;2023-04-08T06:41:24;6.50;94.80
24522;DHT22;12680;57.804;12.190;2023-04-08T06:43:51;6.80;94.90
24522;DHT22;12680;57.804;12.190;2023-04-08T06:46:18;6.60;94.80
24522;DHT22;12680;57.804;12.190;2023-04-08T06:48:44;6.60;94.80
24522;DHT22;12680;57.804;12.190;2023-04-08T06:51:11;6.70;94.70
24522;DHT22;12680;57.804;12.190;2023-04-08T06:53:38;6.70;94.60
24522;DHT22;12680;57.804;12.190;2023-04-08T06:56:05;6.70;94.70
24522;DHT22;12680;57.804;12.190;2023-04-08T06:58:32;6.80;94.60
24522;DHT22;12680;57.804;12.190;2023-04-08T07:00:59;6.80;94.60
24522;DHT22;12680;57.804;12.190;2023-04-08T07:03:26;6.90;94.70
24522;DHT22;12680;57.804;12.190;2023-04-08T07:05:53;7.00;94.70
24522;DHT22;12680;57.804;12.190;2023-04-08T07:08:21;7.10;94.70
24522;DHT22;12680;57.804;12.190;2023-04-08T07:10:47;7.20;94.60
24522;DHT22;12680;57.804;12.190;2023-04-08T07:13:14;7.20;94.50
24522;DHT22;12680;57.804;12.190;2023-04-08T07:15:41;7.30;94.40
24522;DHT22;12680;57.804;12.190;2023-04-08T07:18:08;7.30;94.30
24522;DHT22;12680;57.804;12.190;2023-04-08T07:20:35;7.40;94.40
24522;DHT22;12680;57.804;12.190;2023-04-08T07:23:03;7.50;94.80
24522;DHT22;12680;57.804;12.190;2023-04-08T07:25:32;7.50;94.30
24522;DHT22;12680;57.804;12.190;2023-04-08T07:27:59;7.60;94.30
24522;DHT22;12680;57.804;12.190;2023-04-08T07:30:26;7.60;94.30
24522;DHT22;12680;57.804;12.190;2023-04-08T07:32:53;7.60;94.20
24522;DHT22;12680;57.804;12.190;2023-04-08T07:35:23;7.80;94.30
24522;DHT22;12680;57.804;12.190;2023-04-08T07:37:50;7.80;94.10
24522;DHT22;12680;57.804;12.190;2023-04-08T07:40:17;7.80;94.10
24522;DHT22;12680;57.804;12.190;2023-04-08T07:42:43;7.80;94.00
24522;DHT22;12680;57.804;12.190;2023-04-08T07:45:10;7.90;94.20
24522;DHT22;12680;57.804;12.190;2023-04-08T07:47:37;8.00;94.10
24522;DHT22;12680;57.804;12.190;2023-04-08T07:50:04;8.10;94.00
24522;DHT22;12680;57.804;12.190;2023-04-08T07:52:31;8.10;93.80
24522;DHT22;12680;57.804;12.190;2023-04-08T07:54:58;8.10;93.70
24522;DHT22;12680;57.804;12.190;2023-04-08T07:57:26;8.10;93.60
24522;DHT22;12680;57.804;12.190;2023-04-08T07:59:52;8.10;93.70
24522;DHT22;12680;57.804;12.190;2023-04-08T08:02:19;8.20;93.80
24522;DHT22;12680;57.804;12.190;2023-04-08T08:04:46;8.30;93.80
24522;DHT22;12680;57.804;12.190;2023-04-08T08:07:13;8.30;93.70
24522;DHT22;12680;57.804;12.190;2023-04-08T08:09:39;8.40;93.50
24522;DHT22;12680;57.804;12.190;2023-04-08T08:12:06;8.30;93.30
24522;DHT22;12680;57.804;12.190;2023-04-08T08:14:33;8.20;93.40
24522;DHT22;12680;57.804;12.190;2023-04-08T08:17:00;8.20;93.50
24522;DHT22;12680;57.804;12.190;2023-04-08T08:19:26;8.20;93.40
24522;DHT22;12680;57.804;12.190;2023-04-08T08:21:53;8.20;93.40
24522;DHT22;12680;57.804;12.190;2023-04-08T08:24:20;8.20;93.40
24522;DHT22;12680;57.804;12.190;2023-04-08T08:26:47;8.20;93.50
24522;DHT22;12680;57.804;12.190;2023-04-08T08:29:14;8.20;93.40
24522;DHT22;12680;57.804;12.190;2023-04-08T08:31:41;8.20;93.30
24522;DHT22;12680;57.804;12.190;2023-04-08T08:34:08;8.10;93.20
24522;DHT22;12680;57.804;12.190;2023-04-08T08:36:35;8.10;93.30
24522;DHT22;12680;57.804;12.190;2023-04-08T08:39:01;8.20;93.40
24522;DHT22;12680;57.804;12.190;2023-04-08T08:41:33;8.20;93.20
24522;DHT22;12680;57.804;12.190;2023-04-08T08:44:01;8.30;93.20
24522;DHT22;12680;57.804;12.190;2023-04-08T08:46:29;8.40;93.30
24522;DHT22;12680;57.804;12.190;2023-04-08T08:48:56;8.60;93.30
24522;DHT22;12680;57.804;12.190;2023-04-08T08:51:23;8.80;93.30
24522;DHT22;12680;57.804;12.190;2023-04-08T08:53:50;9.00;93.20
24522;DHT22;12680;57.804;12.190;2023-04-08T08:56:17;9.20;93.00
24522;DHT22;12680;57.804;12.190;2023-04-08T08:58:45;9.30;92.80
24522;DHT22;12680;57.804;12.190;2023-04-08T09:01:30;9.40;92.50
24522;DHT22;12680;57.804;12.190;2023-04-08T09:06:38;9.70;92.70
24522;DHT22;12680;57.804;12.190;2023-04-08T09:09:05;9.90;92.50
24522;DHT22;12680;57.804;12.190;2023-04-08T09:11:40;10.00;92.50
24522;DHT22;12680;57.804;12.190;2023-04-08T09:14:21;10.20;92.40
24522;DHT22;12680;57.804;12.190;2023-04-08T09:16:48;10.40;92.40
24522;DHT22;12680;57.804;12.190;2023-04-08T09:19:16;10.40;91.80
24522;DHT22;12680;57.804;12.190;2023-04-08T09:21:43;10.40;91.90
24522;DHT22;12680;57.804;12.190;2023-04-08T09:24:27;10.60;92.00
24522;DHT22;12680;57.804;12.190;2023-04-08T09:26:54;10.70;91.60
24522;DHT22;12680;57.804;12.190;2023-04-08T09:29:25;10.80;91.90
24522;DHT22;12680;57.804;12.190;2023-04-08T09:31:58;11.10;91.70
24522;DHT22;12680;57.804;12.190;2023-04-08T09:34:26;11.00;91.00
24522;DHT22;12680;57.804;12.190;2023-04-08T09:36:54;10.80;91.00
24522;DHT22;12680;57.804;12.190;2023-04-08T09:39:22;10.80;91.20
24522;DHT22;12680;57.804;12.190;2023-04-08T09:41:50;10.70;90.90
24522;DHT22;12680;57.804;12.190;2023-04-08T09:44:19;10.70;91.00
24522;DHT22;12680;57.804;12.190;2023-04-08T09:49:37;10.70;90.90
24522;DHT22;12680;57.804;12.190;2023-04-08T09:52:23;10.70;91.10
24522;DHT22;12680;57.804;12.190;2023-04-08T09:55:02;10.80;91.10
24522;DHT22;12680;57.804;12.190;2023-04-08T09:58:00;10.90;91.00
24522;DHT22;12680;57.804;12.190;2023-04-08T10:00:35;10.90;91.10
24522;DHT22;12680;57.804;12.190;2023-04-08T10:03:32;10.90;91.10
24522;DHT22;12680;57.804;12.190;2023-04-08T10:06:02;11.00;91.10
24522;DHT22;12680;57.804;12.190;2023-04-08T10:08:30;11.10;91.00
24522;DHT22;12680;57.804;12.190;2023-04-08T10:10:58;11.20;90.90
24522;DHT22;12680;57.804;12.190;2023-04-08T10:13:26;11.20;90.80
24522;DHT22;12680;57.804;12.190;2023-04-08T10:18:43;11.40;90.80
24522;DHT22;12680;57.804;12.190;2023-04-08T10:21:40;11.40;90.70
24522;DHT22;12680;57.804;12.190;2023-04-08T10:24:14;11.60;90.80
24522;DHT22;12680;57.804;12.190;2023-04-08T10:26:42;11.70;90.70
24522;DHT22;12680;57.804;12.190;2023-04-08T10:31:47;11.90;90.80
24522;DHT22;12680;57.804;12.190;2023-04-08T10:34:19;12.00;90.70
24522;DHT22;12680;57.804;12.190;2023-04-08T10:36:47;12.00;90.50
24522;DHT22;12680;57.804;12.190;2023-04-08T10:39:15;12.20;90.60
24522;DHT22;12680;57.804;12.190;2023-04-08T10:41:43;12.30;90.60
24522;DHT22;12680;57.804;12.190;2023-04-08T10:44:21;12.30;90.30
24522;DHT22;12680;57.804;12.190;2023-04-08T10:46:49;12.30;90.20
24522;DHT22;12680;57.804;12.190;2023-04-08T10:49:18;12.30;90.30
24522;DHT22;12680;57.804;12.190;2023-04-08T10:51:45;12.40;90.20
24522;DHT22;12680;57.804;12.190;2023-04-08T10:54:14;12.40;90.10
24522;DHT22;12680;57.804;12.190;2023-04-08T10:56:50;12.50;90.20
24522;DHT22;12680;57.804;12.190;2023-04-08T10:59:31;12.60;90.10
24522;DHT22;12680;57.804;12.190;2023-04-08T11:01:58;12.70;90.00
24522;DHT22;12680;57.804;12.190;2023-04-08T11:04:27;12.70;89.30
24522;DHT22;12680;57.804;12.190;2023-04-08T11:06:54;12.70;89.80
24522;DHT22;12680;57.804;12.190;2023-04-08T11:09:20;12.80;90.00
24522;DHT22;12680;57.804;12.190;2023-04-08T11:11:47;12.90;89.40
24522;DHT22;12680;57.804;12.190;2023-04-08T11:14:14;12.90;89.50
24522;DHT22;12680;57.804;12.190;2023-04-08T11:16:43;12.90;89.10
24522;DHT22;12680;57.804;12.190;2023-04-08T11:19:12;12.80;89.00
24522;DHT22;12680;57.804;12.190;2023-04-08T11:21:39;12.80;89.50
24522;DHT22;12680;57.804;12.190;2023-04-08T11:24:09;12.70;89.50
24522;DHT22;12680;57.804;12.190;2023-04-08T11:26:37;12.70;89.40
24522;DHT22;12680;57.804;12.190;2023-04-08T11:29:05;12.70;89.50
24522;DHT22;12680;57.804;12.190;2023-04-08T11:31:32;12.70;90.10
24522;DHT22;12680;57.804;12.190;2023-04-08T11:34:00;12.80;90.00
24522;DHT22;12680;57.804;12.190;2023-04-08T11:36:28;12.80;89.80
24522;DHT22;12680;57.804;12.190;2023-04-08T11:38:55;13.00;89.80
24522;DHT22;12680;57.804;12.190;2023-04-08T11:41:22;13.10;90.10
24522;DHT22;12680;57.804;12.190;2023-04-08T11:43:54;13.30;90.00
24522;DHT22;12680;57.804;12.190;2023-04-08T11:46:22;13.40;90.00
24522;DHT22;12680;57.804;12.190;2023-04-08T11:49:03;13.60;89.70
24522;DHT22;12680;57.804;12.190;2023-04-08T11:51:31;13.60;89.30
24522;DHT22;12680;57.804;12.190;2023-04-08T11:53:58;13.70;89.50
24522;DHT22;12680;57.804;12.190;2023-04-08T11:56:24;13.80;88.90
24522;DHT22;12680;57.804;12.190;2023-04-08T11:58:51;13.90;89.10
24522;DHT22;12680;57.804;12.190;2023-04-08T12:01:19;14.00;88.40
24522;DHT22;12680;57.804;12.190;2023-04-08T12:03:57;14.00;88.60
24522;DHT22;12680;57.804;12.190;2023-04-08T12:06:25;14.10;88.50
24522;DHT22;12680;57.804;12.190;2023-04-08T12:08:54;14.20;88.60
24522;DHT22;12680;57.804;12.190;2023-04-08T12:11:23;14.30;88.00
24522;DHT22;12680;57.804;12.190;2023-04-08T12:13:50;14.30;87.50
24522;DHT22;12680;57.804;12.190;2023-04-08T12:16:19;14.30;87.90
24522;DHT22;12680;57.804;12.190;2023-04-08T12:18:46;14.50;88.30
24522;DHT22;12680;57.804;12.190;2023-04-08T12:21:12;14.70;87.70
24522;DHT22;12680;57.804;12.190;2023-04-08T12:23:39;14.80;87.60
24522;DHT22;12680;57.804;12.190;2023-04-08T12:26:06;14.80;87.10
24522;DHT22;12680;57.804;12.190;2023-04-08T12:28:33;14.90;87.20
24522;DHT22;12680;57.804;12.190;2023-04-08T12:31:01;14.90;87.00
24522;DHT22;12680;57.804;12.190;2023-04-08T12:33:28;14.90;86.50
24522;DHT22;12680;57.804;12.190;2023-04-08T12:35:55;14.90;86.60
24522;DHT22;12680;57.804;12.190;2023-04-08T12:38:24;14.90;86.90
24522;DHT22;12680;57.804;12.190;2023-04-08T12:40:52;15.00;86.80
24522;DHT22;12680;57.804;12.190;2023-04-08T12:43:19;15.00;86.20
24522;DHT22;12680;57.804;12.190;2023-04-08T12:45:47;15.00;86.50
24522;DHT22;12680;57.804;12.190;2023-04-08T12:48:14;15.10;86.80
24522;DHT22;12680;57.804;12.190;2023-04-08T12:50:41;15.20;86.10
24522;DHT22;12680;57.804;12.190;2023-04-08T12:53:08;15.30;86.30
24522;DHT22;12680;57.804;12.190;2023-04-08T12:55:34;15.40;86.50
24522;DHT22;12680;57.804;12.190;2023-04-08T12:58:01;15.40;86.00
24522;DHT22;12680;57.804;12.190;2023-04-08T13:00:28;15.40;85.50
24522;DHT22;12680;57.804;12.190;2023-04-08T13:02:55;15.30;85.20
24522;DHT22;12680;57.804;12.190;2023-04-08T13:05:22;15.40;85.70
24522;DHT22;12680;57.804;12.190;2023-04-08T13:08:08;15.40;85.40
24522;DHT22;12680;57.804;12.190;2023-04-08T13:10:35;15.40;85.00
24522;DHT22;12680;57.804;12.190;2023-04-08T13:13:02;15.40;85.30
24522;DHT22;12680;57.804;12.190;2023-04-08T13:15:28;15.40;85.40
24522;DHT22;12680;57.804;12.190;2023-04-08T13:17:55;15.40;85.20
24522;DHT22;12680;57.804;12.190;2023-04-08T13:20:22;15.40;85.50
24522;DHT22;12680;57.804;12.190;2023-04-08T13:22:54;15.50;85.30
24522;DHT22;12680;57.804;12.190;2023-04-08T13:25:21;15.60;85.10
24522;DHT22;12680;57.804;12.190;2023-04-08T13:27:48;15.60;84.80
24522;DHT22;12680;57.804;12.190;2023-04-08T13:30:14;15.70;84.60
24522;DHT22;12680;57.804;12.190;2023-04-08T13:32:42;15.70;84.30
24522;DHT22;12680;57.804;12.190;2023-04-08T13:35:09;15.70;84.20
24522;DHT22;12680;57.804;12.190;2023-04-08T13:37:36;15.70;84.10
24522;DHT22;12680;57.804;12.190;2023-04-08T13:40:03;15.80;84.50
24522;DHT22;12680;57.804;12.190;2023-04-08T13:42:30;15.90;84.80
24522;DHT22;12680;57.804;12.190;2023-04-08T13:44:57;16.00;84.20
24522;DHT22;12680;57.804;12.190;2023-04-08T13:47:23;16.10;84.30
24522;DHT22;12680;57.804;12.190;2023-04-08T13:49:50;16.10;83.50
24522;DHT22;12680;57.804;12.190;2023-04-08T13:52:17;16.00;82.90
24522;DHT22;12680;57.804;12.190;2023-04-08T13:54:44;16.00;83.30
24522;DHT22;12680;57.804;12.190;2023-04-08T13:57:11;16.00;83.60
24522;DHT22;12680;57.804;12.190;2023-04-08T13:59:38;16.00;83.10
24522;DHT22;12680;57.804;12.190;2023-04-08T14:02:05;15.90;83.00
24522;DHT22;12680;57.804;12.190;2023-04-08T14:04:32;16.00;83.40
24522;DHT22;12680;57.804;12.190;2023-04-08T14:06:59;16.10;83.10
24522;DHT22;12680;57.804;12.190;2023-04-08T14:09:26;16.20;82.40
24522;DHT22;12680;57.804;12.190;2023-04-08T14:11:53;16.20;82.10
24522;DHT22;12680;57.804;12.190;2023-04-08T14:14:20;16.20;82.00
24522;DHT22;12680;57.804;12.190;2023-04-08T14:16:46;16.10;81.80
24522;DHT22;12680;57.804;12.190;2023-04-08T14:19:14;16.00;81.90
24522;DHT22;12680;57.804;12.190;2023-04-08T14:21:40;16.10;82.00
24522;DHT22;12680;57.804;12.190;2023-04-08T14:24:07;16.00;81.70
24522;DHT22;12680;57.804;12.190;2023-04-08T14:26:34;15.90;81.80
24522;DHT22;12680;57.804;12.190;2023-04-08T14:29:03;16.00;82.20
24522;DHT22;12680;57.804;12.190;2023-04-08T14:31:31;16.00;81.90
24522;DHT22;12680;57.804;12.190;2023-04-08T14:33:58;16.00;81.40
24522;DHT22;12680;57.804;12.190;2023-04-08T14:36:26;15.90;81.50
24522;DHT22;12680;57.804;12.190;2023-04-08T14:38:54;15.90;82.20
24522;DHT22;12680;57.804;12.190;2023-04-08T14:41:21;16.00;82.00
24522;DHT22;12680;57.804;12.190;2023-04-08T14:43:48;15.90;81.60
24522;DHT22;12680;57.804;12.190;2023-04-08T14:46:15;15.90;81.80
24522;DHT22;12680;57.804;12.190;2023-04-08T14:48:42;16.00;81.50
24522;DHT22;12680;57.804;12.190;2023-04-08T14:51:09;15.90;81.50
24522;DHT22;12680;57.804;12.190;2023-04-08T14:53:36;16.00;81.80
24522;DHT22;12680;57.804;12.190;2023-04-08T14:56:03;16.10;82.10
24522;DHT22;12680;57.804;12.190;2023-04-08T14:58:30;16.30;81.50
24522;DHT22;12680;57.804;12.190;2023-04-08T15:00:57;16.30;81.40
24522;DHT22;12680;57.804;12.190;2023-04-08T15:03:24;16.40;80.90
24522;DHT22;12680;57.804;12.190;2023-04-08T15:05:51;16.30;80.10
24522;DHT22;12680;57.804;12.190;2023-04-08T15:08:18;16.20;80.20
24522;DHT22;12680;57.804;12.190;2023-04-08T15:10:45;16.20;80.60
24522;DHT22;12680;57.804;12.190;2023-04-08T15:13:12;16.30;80.90
24522;DHT22;12680;57.804;12.190;2023-04-08T15:15:39;16.40;80.00
24522;DHT22;12680;57.804;12.190;2023-04-08T15:18:06;16.40;79.40
24522;DHT22;12680;57.804;12.190;2023-04-08T15:20:33;16.40;79.30
24522;DHT22;12680;57.804;12.190;2023-04-08T15:23:00;16.70;79.40
24522;DHT22;12680;57.804;12.190;2023-04-08T15:25:26;16.60;79.70
24522;DHT22;12680;57.804;12.190;2023-04-08T15:27:53;16.50;79.10
24522;DHT22;12680;57.804;12.190;2023-04-08T15:30:20;16.50;78.80
24522;DHT22;12680;57.804;12.190;2023-04-08T15:32:50;16.60;78.40
24522;DHT22;12680;57.804;12.190;2023-04-08T15:35:18;16.50;78.00
24522;DHT22;12680;57.804;12.190;2023-04-08T15:37:44;16.40;77.30
24522;DHT22;12680;57.804;12.190;2023-04-08T15:40:11;16.20;77.50
24522;DHT22;12680;57.804;12.190;2023-04-08T15:42:38;16.10;77.80
24522;DHT22;12680;57.804;12.190;2023-04-08T15:45:05;16.00;77.10